This is the latest recevied weather packets stored in our database for station/object LEAS. If no packets are shown the sender has not sent any weather packets the latest 10 day(s).
| Time | Temp. | Humidity | Pressure | Rain* | Wind** | Luminosity | Snow |
|---|---|---|---|---|---|---|---|
| 1787742003 | 21.11° C | 82% | 1007 hPa | - | - | - | - |
| 1787740203 | 22.22° C | 78% | 1008 hPa | - | - | - | - |
| 1787739303 | 22.22° C | 78% | 1008 hPa | - | - | - | - |
| 1787738404 | 21.11° C | 77% | 1008 hPa | - | - | - | - |
| 1787737503 | 21.11° C | 77% | 1008 hPa | - | - | - | - |
| 1787734803 | 18.89° C | 93% | 1008 hPa | - | - | - | - |
| 1787733903 | 18.89° C | 93% | 1008 hPa | - | - | - | - |
| 1787733003 | 17.78° C | 93% | 1008 hPa | - | - | - | - |
| 1787732103 | 17.78° C | 93% | 1008 hPa | - | - | - | - |
| 1787731203 | 17.78° C | 93% | 1008 hPa | - | - | - | - |
| 1787730303 | 17.78° C | 93% | 1008 hPa | - | - | - | - |
| 1787729403 | 17.22° C | 100% | 1008 hPa | - | - | - | - |
| 1787727603 | 17.22° C | 100% | 1009 hPa | - | - | - | - |
| 1787726703 | 17.22° C | 100% | 1009 hPa | - | - | - | - |
| 1787724903 | 17.22° C | 100% | 1008 hPa | - | - | - | - |
| 1787722204 | 17.22° C | 100% | 1010 hPa | - | - | - | - |
| 1787720403 | 17.22° C | 100% | 1010 hPa | - | - | - | - |
| 1787719503 | 17.22° C | 100% | 1010 hPa | - | - | - | - |
| 1787718603 | 17.22° C | 100% | 1010 hPa | - | - | - | - |
| 1787716803 | 17.22° C | 100% | 1011 hPa | - | - | - | - |
| 1787715903 | 17.22° C | 100% | 1011 hPa | - | - | - | - |
| 1787715003 | 17.22° C | 100% | 1011 hPa | - | - | - | - |
| 1787712304 | 17.78° C | 93% | 1011 hPa | - | - | - | - |
| 1787710503 | 17.78° C | 93% | 1012 hPa | - | - | - | - |
| 1787703303 | 17.78° C | 100% | 1013 hPa | - | - | - | - |
* Rain since midnight (hover to see other rain measurements)
** Current wind speed in m/s (hover to see current wind gust speed)